Time;durP1;ratioP1;P1;durP2;ratioP2;P2;SDS_P1;SDS_P2;PMS_P1;PMS_P2;Temp;Humidity;BMP_temperature;BMP_pressure;BME280_temperature;BME280_humidity;BME280_pressure;Samples;Min_cycle;Max_cycle;Signal;HPM_P1;HPM_P2
2021/05/26 00:00:44;;;;;;;1.63;1.13;;;;;;;13.03;76.40;101330.34;1760099;80;21202;-66
2021/05/26 00:03:18;;;;;;;4.50;1.60;;;;;;;12.99;76.41;101332.84;1750623;81;21169;-66
2021/05/26 00:05:52;;;;;;;2.05;1.60;;;;;;;12.95;76.49;101333.22;1727499;82;21815;-66
2021/05/26 00:08:30;;;;;;;4.87;1.70;;;;;;;12.93;76.53;101335.98;1737289;82;21325;-66
2021/05/26 00:11:08;;;;;;;2.70;1.37;;;;;;;12.90;76.66;101330.97;1724357;81;21319;-66
2021/05/26 00:13:47;;;;;;;1.90;1.45;;;;;;;12.90;76.78;101331.47;1732890;82;21758;-66
2021/05/26 00:16:22;;;;;;;4.53;1.60;;;;;;;12.90;76.91;101330.97;1765956;80;21169;-66
2021/05/26 00:18:55;;;;;;;5.28;1.57;;;;;;;12.90;76.98;101327.02;1776012;80;21367;-66
2021/05/26 00:21:30;;;;;;;2.77;1.98;;;;;;;12.91;76.96;101329.18;1770459;80;21149;-66
2021/05/26 00:24:05;;;;;;;5.53;1.98;;;;;;;12.90;77.03;101335.41;1778958;80;21839;-66
2021/05/26 00:26:37;;;;;;;3.30;1.92;;;;;;;12.88;77.08;101330.27;1769591;80;21161;-66
2021/05/26 00:29:11;;;;;;;4.00;1.87;;;;;;;12.87;77.10;101331.23;1769029;80;22133;-65
2021/05/26 00:31:45;;;;;;;3.15;1.70;;;;;;;12.87;77.15;101331.71;1747710;80;21303;-66
2021/05/26 00:34:18;;;;;;;5.27;2.10;;;;;;;12.84;77.16;101336.27;1738219;81;21747;-66
2021/05/26 00:36:51;;;;;;;2.60;1.70;;;;;;;12.82;77.15;101327.64;1749063;80;21466;-66
2021/05/26 00:39:25;;;;;;;4.42;2.30;;;;;;;12.80;77.15;101330.88;1758246;79;21292;-67
2021/05/26 00:41:58;;;;;;;5.10;1.70;;;;;;;12.77;77.27;101324.58;1732147;80;21785;-68
2021/05/26 00:44:31;;;;;;;3.27;1.90;;;;;;;12.74;77.39;101332.70;1759586;80;21827;-67
2021/05/26 00:47:04;;;;;;;5.47;1.87;;;;;;;12.72;77.44;101331.16;1754314;80;21324;-67
2021/05/26 00:49:38;;;;;;;7.05;2.20;;;;;;;12.68;77.53;101333.18;1759502;80;21268;-67
2021/05/26 00:52:11;;;;;;;4.95;2.20;;;;;;;12.66;77.59;101337.73;1748345;80;21228;-66
2021/05/26 00:54:44;;;;;;;5.27;2.00;;;;;;;12.62;77.67;101337.63;1754875;80;21196;-67
2021/05/26 00:57:18;;;;;;;4.53;2.20;;;;;;;12.56;77.75;101328.91;1756059;80;21910;-66
2021/05/26 00:59:51;;;;;;;6.50;2.23;;;;;;;12.54;77.94;101337.87;1737065;82;21326;-66
2021/05/26 01:02:24;;;;;;;4.90;1.82;;;;;;;12.49;78.08;101339.55;1742716;81;21272;-67
2021/05/26 01:04:58;;;;;;;4.30;1.87;;;;;;;12.47;78.18;101344.56;1726659;81;21723;-66
2021/05/26 01:07:31;;;;;;;5.55;2.10;;;;;;;12.44;78.26;101340.89;1713876;81;21320;-67
2021/05/26 01:10:08;;;;;;;5.62;2.02;;;;;;;12.40;78.40;101340.28;1720685;81;21286;-66
2021/05/26 01:12:43;;;;;;;4.05;2.02;;;;;;;12.38;78.55;101340.89;1758277;80;21243;-65
2021/05/26 01:15:17;;;;;;;5.33;2.07;;;;;;;12.36;78.68;101340.18;1750245;80;21808;-65
2021/05/26 01:17:50;;;;;;;7.57;2.50;;;;;;;12.36;78.82;101337.55;1740019;80;21883;-65
2021/05/26 01:20:30;;;;;;;4.97;2.00;;;;;;;12.37;78.84;101339.71;1737569;80;21859;-66
2021/05/26 01:23:04;;;;;;;10.25;2.30;;;;;;;12.34;78.79;101339.94;1719205;81;21295;-65
2021/05/26 01:25:40;;;;;;;8.93;2.22;;;;;;;12.31;78.96;101337.08;1767661;80;21228;-66
2021/05/26 01:28:13;;;;;;;6.47;2.10;;;;;;;12.30;78.99;101340.64;1738315;80;21291;-65
2021/05/26 01:30:46;;;;;;;6.53;2.33;;;;;;;12.28;79.06;101342.56;1718366;81;21264;-65
2021/05/26 01:33:19;;;;;;;3.62;2.02;;;;;;;12.30;79.16;101352.97;1755345;80;21272;-65
2021/05/26 01:35:53;;;;;;;3.67;1.90;;;;;;;12.27;79.17;101342.70;1751105;80;21878;-65
2021/05/26 01:38:27;;;;;;;6.10;1.95;;;;;;;12.27;79.15;101340.91;1756172;80;21275;-66
2021/05/26 01:41:02;;;;;;;3.08;2.10;;;;;;;12.26;79.20;101340.54;1749774;80;21182;-65
2021/05/26 01:43:37;;;;;;;5.28;1.90;;;;;;;12.24;79.25;101331.95;1739557;81;21172;-66
2021/05/26 01:46:10;;;;;;;6.25;1.80;;;;;;;12.26;79.31;101339.70;1730149;81;21224;-65
2021/05/26 01:48:48;;;;;;;8.88;2.22;;;;;;;12.28;79.27;101345.19;1741932;81;21807;-66
2021/05/26 01:51:22;;;;;;;6.37;2.08;;;;;;;12.30;79.27;101341.15;1740485;81;21780;-66
2021/05/26 01:53:58;;;;;;;7.28;1.90;;;;;;;12.33;79.30;101348.29;1741604;82;21339;-65
2021/05/26 01:56:33;;;;;;;6.45;2.30;;;;;;;12.35;79.28;101345.06;1760521;80;21810;-65
2021/05/26 01:59:07;;;;;;;6.17;2.10;;;;;;;12.39;79.28;101343.05;1763091;79;21276;-66
2021/05/26 02:01:42;;;;;;;4.80;1.90;;;;;;;12.42;79.19;101351.50;1753636;80;21838;-65
2021/05/26 02:04:17;;;;;;;4.83;1.95;;;;;;;12.44;79.06;101354.83;1749087;80;21279;-66
2021/05/26 02:07:07;;;;;;;5.83;1.82;;;;;;;12.47;78.99;101347.19;1741832;80;21271;-66
2021/05/26 02:09:41;;;;;;;3.37;1.75;;;;;;;12.52;78.90;101351.60;1761899;80;21280;-66
2021/05/26 02:12:21;;;;;;;5.00;2.08;;;;;;;12.57;78.80;101350.77;1764127;80;21789;-67
2021/05/26 02:14:57;;;;;;;7.15;2.10;;;;;;;12.63;78.74;101358.17;1767770;80;21790;-67
2021/05/26 02:17:30;;;;;;;5.15;1.80;;;;;;;12.68;78.62;101356.83;1755134;80;21256;-66
2021/05/26 02:20:05;;;;;;;4.42;1.75;;;;;;;12.76;78.55;101354.91;1759259;81;21296;-67
2021/05/26 02:22:38;;;;;;;3.92;2.00;;;;;;;12.85;78.47;101355.47;1748585;80;21244;-67
2021/05/26 02:25:13;;;;;;;9.08;2.72;;;;;;;12.98;78.19;101359.27;1759130;80;21282;-67
2021/05/26 02:27:47;;;;;;;4.78;1.70;;;;;;;13.12;77.93;101357.21;1750828;80;21216;-66
2021/05/26 02:30:23;;;;;;;6.97;1.80;;;;;;;13.31;77.59;101359.16;1737105;80;21256;-66
2021/05/26 02:32:55;;;;;;;;;;;;;;;13.48;77.17;101358.13;1757049;80;21288;-66
2021/05/26 02:35:29;;;;;;;4.60;2.00;;;;;;;13.66;76.65;101364.94;1751990;80;20299;-66
2021/05/26 02:38:02;;;;;;;;;;;;;;;13.83;76.06;101358.25;1733628;80;21687;-67
2021/05/26 02:40:35;;;;;;;5.58;1.80;;;;;;;14.00;75.49;101361.60;1750860;80;20239;-67
2021/05/26 02:43:09;;;;;;;6.62;1.72;;;;;;;14.14;74.86;101360.77;1764110;80;21224;-66
2021/05/26 02:45:43;;;;;;;4.05;1.42;;;;;;;14.30;74.23;101361.65;1757508;80;21859;-67
2021/05/26 02:48:16;;;;;;;3.77;1.40;;;;;;;14.46;73.62;101370.35;1758970;80;21782;-67
2021/05/26 02:50:49;;;;;;;6.75;1.75;;;;;;;14.59;73.08;101369.14;1759654;79;21767;-67
2021/05/26 02:53:24;;;;;;;2.47;1.55;;;;;;;14.72;72.51;101369.73;1758355;80;21480;-66
2021/05/26 02:55:58;;;;;;;4.42;1.70;;;;;;;14.87;71.92;101373.30;1752570;80;21813;-66
2021/05/26 02:58:45;;;;;;;5.00;1.45;;;;;;;15.01;71.28;101372.42;1735866;80;21354;-67
2021/05/26 03:01:37;;;;;;;4.70;1.40;;;;;;;15.15;70.70;101366.73;1760638;80;21251;-67
2021/05/26 03:04:11;;;;;;;3.12;1.32;;;;;;;15.32;70.14;101373.95;1751926;80;21700;-67
2021/05/26 03:06:47;;;;;;;6.70;1.87;;;;;;;15.46;69.54;101372.72;1758645;80;21171;-67
2021/05/26 03:09:21;;;;;;;7.30;1.40;;;;;;;15.58;68.80;101368.95;1751536;80;21818;-69
2021/05/26 03:11:54;;;;;;;3.15;1.37;;;;;;;15.67;68.36;101371.22;1740539;82;21850;-67
2021/05/26 03:14:36;;;;;;;4.62;1.45;;;;;;;15.77;67.97;101363.64;1711082;82;21289;-66
2021/05/26 03:17:11;;;;;;;4.00;1.70;;;;;;;15.96;67.50;101374.16;1720046;81;21870;-61
2021/05/26 03:19:45;;;;;;;5.55;1.52;;;;;;;16.15;66.89;101368.81;1727093;81;21204;-62
2021/05/26 03:22:20;;;;;;;7.75;1.60;;;;;;;16.36;66.15;101363.28;1679189;81;21288;-62
2021/05/26 03:24:55;;;;;;;3.85;1.50;;;;;;;16.60;65.35;101375.98;1725764;81;21241;-61
2021/05/26 03:27:34;;;;;;;2.97;1.27;;;;;;;16.81;64.62;101368.66;1693557;83;21934;-62
2021/05/26 03:30:12;;;;;;;2.87;1.50;;;;;;;17.05;63.84;101366.22;1712340;82;22148;-62
2021/05/26 03:32:45;;;;;;;5.10;1.37;;;;;;;17.40;63.29;101369.36;1740725;80;21327;-61
2021/05/26 03:35:18;;;;;;;5.87;1.50;;;;;;;17.83;62.08;101366.75;1782173;79;21235;-62
2021/05/26 03:37:51;;;;;;;7.83;1.42;;;;;;;18.22;60.86;101365.81;1754507;80;21284;-61
2021/05/26 03:40:25;;;;;;;3.95;1.60;;;;;;;18.62;59.78;101375.28;1752827;80;21683;-62
2021/05/26 03:42:59;;;;;;;2.77;1.20;;;;;;;19.08;58.56;101377.05;1748624;80;21283;-62
2021/05/26 03:45:42;;;;;;;4.05;1.30;;;;;;;19.57;57.41;101379.24;1744649;80;21280;-62
2021/05/26 03:48:17;;;;;;;2.45;1.52;;;;;;;20.08;55.85;101377.52;1763612;80;21148;-62
2021/05/26 03:50:50;;;;;;;13.72;2.10;;;;;;;20.56;54.65;101379.20;1761908;80;21779;-61
2021/05/26 03:53:23;;;;;;;3.20;1.30;;;;;;;21.10;53.06;101379.57;1765404;80;21796;-60
2021/05/26 03:55:56;;;;;;;3.52;1.20;;;;;;;21.63;51.89;101377.31;1768556;81;21184;-61
2021/05/26 03:58:36;;;;;;;2.58;1.30;;;;;;;22.20;50.48;101380.75;1731155;81;21252;-61
2021/05/26 04:01:11;;;;;;;3.83;1.35;;;;;;;22.77;48.97;101375.05;1736403;81;21779;-60
2021/05/26 04:03:44;;;;;;;3.77;1.35;;;;;;;23.29;47.60;101380.92;1718079;82;21284;-60
2021/05/26 04:06:20;;;;;;;5.17;1.32;;;;;;;23.79;46.08;101391.12;1761262;80;21695;-60
2021/05/26 04:08:53;;;;;;;4.72;1.32;;;;;;;24.28;44.69;101388.40;1764604;80;21835;-62
2021/05/26 04:11:27;;;;;;;6.17;1.10;;;;;;;24.68;43.19;101385.70;1764556;81;21198;-61
2021/05/26 04:14:08;;;;;;;2.65;1.10;;;;;;;25.07;42.42;101386.88;1705982;83;21259;-60
2021/05/26 04:16:58;;;;;;;3.08;1.30;;;;;;;25.89;40.39;101390.00;1734011;81;21335;-60
2021/05/26 04:19:33;;;;;;;5.25;1.10;;;;;;;25.89;40.39;101390.00;1735724;80;21323;-60
2021/05/26 04:22:07;;;;;;;2.30;1.20;;;;;;;26.32;39.52;101389.03;1711805;81;21916;-61
2021/05/26 04:24:43;;;;;;;3.35;1.30;;;;;;;26.68;38.37;101389.28;1721226;81;21296;-60
2021/05/26 04:27:17;;;;;;;6.10;1.40;;;;;;;27.03;37.88;101387.90;1698481;82;21255;-60
2021/05/26 04:29:50;;;;;;;;;;;;;;;27.39;36.94;101385.38;1752886;80;21846;-60
2021/05/26 04:32:23;;;;;;;3.40;1.20;;;;;;;27.71;35.95;101390.18;1722025;80;20243;-60
2021/05/26 04:34:57;;;;;;;5.40;1.17;;;;;;;27.95;35.60;101385.30;1674049;83;21822;-62
2021/05/26 04:37:29;;;;;;;;;;;;;;;28.23;35.17;101381.31;1730580;81;21275;-59
2021/05/26 04:40:02;;;;;;;3.75;1.32;;;;;;;28.51;34.93;101381.08;1700258;82;20614;-62
2021/05/26 04:42:36;;;;;;;2.65;1.60;;;;;;;28.85;34.70;101379.59;1694102;83;22244;-58
2021/05/26 04:45:13;;;;;;;2.62;0.93;;;;;;;29.25;33.83;101379.87;1749801;80;21154;-60
2021/05/26 04:47:47;;;;;;;2.25;1.00;;;;;;;29.65;33.21;101373.29;1740524;82;21320;-60
2021/05/26 04:50:21;;;;;;;4.83;1.12;;;;;;;30.06;32.44;101379.94;1763353;80;21286;-60
2021/05/26 04:52:54;;;;;;;3.55;1.25;;;;;;;30.49;32.24;101384.41;1726434;81;21361;-60
2021/05/26 04:55:27;;;;;;;2.60;1.32;;;;;;;30.86;31.48;101375.92;1694907;83;21311;-64
2021/05/26 04:58:07;;;;;;;;;;;;;;;31.17;31.07;101384.34;1722741;81;21237;-65
2021/05/26 05:00:39;;;;;;;6.80;3.67;;;;;;;31.49;30.66;101385.17;1700815;82;20227;-67
2021/05/26 05:03:12;;;;;;;4.83;1.30;;;;;;;31.78;30.25;101382.66;1758853;79;21271;-62
2021/05/26 05:05:44;;;;;;;;;;;;;;;32.12;30.16;101379.37;1751679;79;21279;-70
2021/05/26 05:08:17;;;;;;;3.47;1.25;;;;;;;32.50;29.62;101373.92;1746588;80;20700;-65
2021/05/26 05:10:54;;;;;;;3.80;1.15;;;;;;;32.86;29.28;101375.12;1740647;80;21214;-68
2021/05/26 05:13:28;;;;;;;4.60;1.47;;;;;;;33.23;28.71;101370.06;1759642;79;21244;-63
2021/05/26 05:16:02;;;;;;;3.45;1.20;;;;;;;33.65;28.25;101372.05;1745956;80;21240;-62
2021/05/26 05:18:35;;;;;;;10.55;1.70;;;;;;;34.04;27.57;101374.73;1755033;79;21192;-64
2021/05/26 05:21:08;;;;;;;3.75;1.30;;;;;;;34.29;27.32;101379.48;1758225;79;21304;-68
2021/05/26 05:23:42;;;;;;;5.30;1.20;;;;;;;34.58;27.15;101375.81;1751666;80;21194;-71
2021/05/26 05:26:16;;;;;;;4.75;1.10;;;;;;;34.92;26.46;101376.41;1735294;80;21263;-68
2021/05/26 05:28:49;;;;;;;3.50;0.98;;;;;;;35.25;25.80;101371.58;1765703;79;21160;-66
2021/05/26 05:31:22;;;;;;;1.98;0.82;;;;;;;35.57;25.53;101370.21;1727887;79;21919;-61
2021/05/26 05:33:55;;;;;;;2.25;1.00;;;;;;;35.93;24.81;101369.58;1767914;78;22632;-63
2021/05/26 05:36:28;;;;;;;1.67;0.80;;;;;;;36.24;24.52;101371.67;1735556;79;21240;-63
2021/05/26 05:39:01;;;;;;;4.50;1.00;;;;;;;36.48;23.81;101375.41;1764244;79;21429;-65
2021/05/26 05:41:34;;;;;;;3.12;1.00;;;;;;;36.76;23.07;101371.97;1745662;79;21212;-68
2021/05/26 05:44:08;;;;;;;4.75;1.35;;;;;;;36.94;23.10;101370.52;1759352;79;21378;-71
2021/05/26 05:46:41;;;;;;;12.37;1.95;;;;;;;37.18;22.30;101368.70;1717988;81;21248;-69
2021/05/26 05:49:14;;;;;;;3.92;1.30;;;;;;;37.37;21.78;101364.16;1769663;79;21225;-70
2021/05/26 05:51:56;;;;;;;7.95;2.00;;;;;;;37.62;21.52;101361.73;1726559;81;21193;-69
2021/05/26 05:54:44;;;;;;;7.05;1.32;;;;;;;37.89;21.48;101368.04;1722428;80;21369;-65
2021/05/26 05:57:16;;;;;;;2.70;1.00;;;;;;;38.07;21.09;101369.45;1773792;79;21203;-68
2021/05/26 05:59:50;;;;;;;5.62;1.60;;;;;;;38.17;20.83;101368.52;1790015;79;21703;-69
2021/05/26 06:02:23;;;;;;;2.47;1.00;;;;;;;38.23;20.63;101367.36;1804460;79;21322;-65
2021/05/26 06:04:57;;;;;;;3.05;1.02;;;;;;;38.32;20.71;101365.08;1790598;79;21225;-64
2021/05/26 06:07:30;;;;;;;10.88;1.82;;;;;;;38.40;20.48;101363.61;1778303;79;21365;-70
2021/05/26 06:10:06;;;;;;;3.58;1.00;;;;;;;38.51;20.60;101368.37;1766566;79;21290;-66
2021/05/26 06:12:41;;;;;;;1.40;0.70;;;;;;;38.58;19.49;101367.44;1771979;79;22032;-71
2021/05/26 06:15:16;;;;;;;1.37;0.85;;;;;;;38.43;18.86;101369.29;1766740;79;21971;-67
2021/05/26 06:17:49;;;;;;;3.62;0.98;;;;;;;38.14;19.31;101365.02;1778306;79;21313;-67
2021/05/26 06:20:23;;;;;;;2.25;0.95;;;;;;;37.94;19.46;101366.62;1769000;79;21314;-71
2021/05/26 06:22:56;;;;;;;2.52;0.70;;;;;;;37.91;19.60;101368.02;1796996;79;21378;-73
2021/05/26 06:25:29;;;;;;;5.03;0.90;;;;;;;37.90;18.88;101369.14;1783693;79;21212;-68
2021/05/26 06:28:03;;;;;;;12.18;2.40;;;;;;;37.75;18.67;101365.98;1793474;79;21342;-71
2021/05/26 06:30:36;;;;;;;4.92;1.70;;;;;;;37.67;19.02;101364.42;1797033;79;21299;-71
2021/05/26 06:33:10;;;;;;;5.00;1.02;;;;;;;37.59;18.80;101360.39;1801410;79;21204;-65
2021/05/26 06:35:43;;;;;;;4.65;1.10;;;;;;;37.42;18.63;101357.86;1801582;79;21303;-69
2021/05/26 06:38:17;;;;;;;5.00;0.93;;;;;;;37.19;18.93;101358.02;1797530;79;21312;-70
2021/05/26 06:40:51;;;;;;;3.72;0.88;;;;;;;36.76;19.54;101356.95;1793772;79;22077;-68
2021/05/26 06:43:24;;;;;;;6.45;1.15;;;;;;;36.28;19.36;101360.50;1796444;79;21597;-67
2021/05/26 06:45:57;;;;;;;5.72;1.05;;;;;;;36.23;19.32;101356.43;1779925;79;22058;-70
2021/05/26 06:48:30;;;;;;;2.67;0.60;;;;;;;36.51;19.49;101352.22;1794058;79;21201;-67
2021/05/26 06:51:05;;;;;;;6.60;1.02;;;;;;;36.81;18.72;101349.28;1775842;79;21310;-69
2021/05/26 06:53:38;;;;;;;4.15;0.75;;;;;;;37.04;18.94;101342.58;1762729;79;21247;-66
2021/05/26 06:56:11;;;;;;;3.77;0.85;;;;;;;37.27;18.22;101348.40;1786520;79;21259;-68
2021/05/26 06:58:45;;;;;;;5.17;1.00;;;;;;;37.57;17.23;101343.48;1798138;79;21887;-69
2021/05/26 07:01:19;;;;;;;3.33;0.90;;;;;;;37.81;17.56;101346.22;1786445;79;21283;-66
2021/05/26 07:03:52;;;;;;;3.20;0.68;;;;;;;38.03;16.88;101347.91;1801443;79;21279;-69
2021/05/26 07:06:26;;;;;;;1.30;0.60;;;;;;;38.27;16.02;101345.14;1796484;79;21302;-66
2021/05/26 07:08:59;;;;;;;2.10;0.75;;;;;;;38.54;16.29;101344.53;1801485;79;21323;-69
2021/05/26 07:11:33;;;;;;;2.15;0.98;;;;;;;38.96;15.46;101339.78;1801279;79;21314;-67
2021/05/26 07:14:07;;;;;;;4.17;0.80;;;;;;;39.32;15.09;101336.45;1779754;79;21176;-68
2021/05/26 07:16:41;;;;;;;1.85;0.90;;;;;;;39.50;14.71;101338.33;1788503;79;21235;-66
2021/05/26 07:19:16;;;;;;;1.90;0.80;;;;;;;39.77;14.63;101345.21;1797813;79;21184;-63
2021/05/26 07:21:49;;;;;;;2.25;0.78;;;;;;;40.04;14.18;101342.50;1786045;79;21278;-65
2021/05/26 07:24:23;;;;;;;1.22;0.70;;;;;;;40.07;13.92;101347.94;1793277;79;21610;-66
2021/05/26 07:26:56;;;;;;;9.38;1.07;;;;;;;39.98;13.36;101349.19;1777710;79;21891;-70
2021/05/26 07:29:29;;;;;;;1.00;0.60;;;;;;;39.64;13.41;101346.03;1781091;79;22190;-65
2021/05/26 07:32:03;;;;;;;1.15;0.65;;;;;;;39.51;13.25;101347.60;1807013;79;21365;-67
2021/05/26 07:34:36;;;;;;;3.30;1.02;;;;;;;39.42;13.38;101341.75;1779818;79;21584;-64
2021/05/26 07:37:09;;;;;;;1.35;0.70;;;;;;;39.38;12.98;101334.71;1767757;79;21332;-67
2021/05/26 07:39:42;;;;;;;1.55;0.65;;;;;;;39.28;13.17;101336.81;1767887;79;21325;-66
2021/05/26 07:42:17;;;;;;;3.05;0.60;;;;;;;39.33;13.34;101327.95;1793389;79;22107;-68
2021/05/26 07:44:49;;;;;;;11.75;1.50;;;;;;;39.46;13.02;101338.11;1793375;78;21316;-65
2021/05/26 07:47:22;;;;;;;3.30;0.78;;;;;;;39.57;12.97;101335.45;1790311;79;22199;-68
2021/05/26 07:49:55;;;;;;;1.50;0.50;;;;;;;39.68;12.69;101338.81;1785944;79;21342;-65
2021/05/26 07:52:30;;;;;;;1.00;0.70;;;;;;;39.62;12.43;101337.30;1772055;79;22130;-66
2021/05/26 07:55:04;;;;;;;1.27;0.60;;;;;;;39.14;13.20;101335.94;1793835;78;22174;-60
2021/05/26 07:57:38;;;;;;;3.67;1.20;;;;;;;38.63;13.17;101330.43;1770287;79;21187;-70
2021/05/26 08:00:12;;;;;;;3.98;0.60;;;;;;;38.39;13.19;101334.61;1784829;79;21240;-65
2021/05/26 08:02:44;;;;;;;6.28;0.93;;;;;;;38.17;13.04;101333.78;1796647;78;21189;-65
2021/05/26 08:05:18;;;;;;;3.00;0.57;;;;;;;38.12;14.03;101333.05;1807549;79;21467;-66
2021/05/26 08:07:51;;;;;;;2.35;0.57;;;;;;;38.01;13.96;101333.72;1799595;79;22089;-70
2021/05/26 08:10:23;;;;;;;1.72;0.65;;;;;;;38.20;13.92;101332.37;1806356;79;22094;-67
2021/05/26 08:12:56;;;;;;;5.97;0.82;;;;;;;38.25;13.03;101333.69;1775990;79;21220;-66
2021/05/26 08:15:30;;;;;;;1.50;0.60;;;;;;;38.21;13.23;101334.84;1779150;79;21387;-66
2021/05/26 08:18:02;;;;;;;3.35;0.80;;;;;;;38.26;13.04;101332.59;1767887;79;21247;-61
2021/05/26 08:20:36;;;;;;;1.12;0.70;;;;;;;38.26;12.98;101328.48;1779095;79;21180;-68
2021/05/26 08:23:08;;;;;;;4.58;1.17;;;;;;;38.41;13.28;101333.20;1785631;79;21298;-66
2021/05/26 08:25:41;;;;;;;1.35;0.60;;;;;;;38.45;12.99;101325.78;1796652;79;21240;-64
2021/05/26 08:28:13;;;;;;;;;;;;;;;38.48;13.18;101325.20;1806017;79;21702;-66
2021/05/26 08:30:46;;;;;;;1.98;0.68;;;;;;;38.18;12.80;101331.31;1803741;79;20818;-68
2021/05/26 08:33:19;;;;;;;2.05;0.70;;;;;;;37.58;13.05;101329.27;1787144;79;21370;-70
2021/05/26 08:35:52;;;;;;;3.33;1.10;;;;;;;37.34;13.02;101317.47;1783041;79;22132;-70
2021/05/26 08:38:24;;;;;;;2.90;0.57;;;;;;;37.21;13.71;101320.34;1795781;79;21193;-63
2021/05/26 08:40:57;;;;;;;2.37;0.60;;;;;;;37.00;13.51;101324.33;1770051;79;21518;-65
2021/05/26 08:43:30;;;;;;;2.25;0.60;;;;;;;36.62;14.36;101316.94;1772995;79;21191;-63
2021/05/26 08:46:03;;;;;;;;;;;;;;;36.34;14.47;101314.37;1770098;79;21310;-59
2021/05/26 08:48:35;;;;;;;4.97;0.60;;;;;;;36.34;14.39;101322.01;1797499;79;20751;-67
2021/05/26 08:51:10;;;;;;;5.85;0.80;;;;;;;36.38;15.13;101320.88;1805052;79;21350;-64
2021/05/26 08:53:42;;;;;;;2.00;0.78;;;;;;;36.18;14.70;101321.00;1797904;79;21220;-62
2021/05/26 08:56:15;;;;;;;4.65;0.70;;;;;;;35.97;14.42;101312.05;1781857;79;21204;-65
2021/05/26 08:58:47;;;;;;;5.60;0.80;;;;;;;35.85;14.49;101312.38;1788600;79;22049;-57
2021/05/26 09:01:22;;;;;;;1.50;0.60;;;;;;;35.68;14.60;101313.24;1782077;79;21184;-61
2021/05/26 09:04:29;;;;;;;1.17;0.82;;;;;;;35.47;14.66;101310.84;1786206;79;21307;-61
2021/05/26 09:07:19;;;;;;;2.70;0.90;;;;;;;35.41;14.57;101308.66;1768738;79;21176;-60
2021/05/26 09:09:55;;;;;;;2.12;0.75;;;;;;;35.60;15.15;101303.47;1794006;79;21203;-62
2021/05/26 09:12:45;;;;;;;3.52;0.78;;;;;;;35.71;15.00;101305.06;1796597;79;21303;-59
2021/05/26 09:15:20;;;;;;;1.60;0.70;;;;;;;35.67;14.85;101304.81;1803593;79;21208;-61
2021/05/26 09:17:58;;;;;;;2.10;0.55;;;;;;;35.11;14.66;101295.89;1774893;79;21306;-62
2021/05/26 09:20:31;;;;;;;1.32;0.57;;;;;;;34.70;15.49;101292.88;1795133;79;21205;-61
2021/05/26 09:23:16;;;;;;;3.12;0.60;;;;;;;34.52;15.54;101296.89;1790741;79;21370;-59
2021/05/26 09:25:52;;;;;;;2.80;0.50;;;;;;;34.32;15.74;101303.63;1795254;79;21498;-60
2021/05/26 09:28:34;;;;;;;1.47;0.60;;;;;;;33.70;15.87;101300.91;1792979;79;21323;-58
2021/05/26 09:31:12;;;;;;;5.33;0.90;;;;;;;32.96;16.77;101295.20;1783672;79;21196;-58
2021/05/26 09:33:47;;;;;;;7.17;0.90;;;;;;;32.28;18.10;101298.55;1771433;79;21264;-62
2021/05/26 09:36:24;;;;;;;2.50;0.70;;;;;;;31.74;19.02;101298.94;1791350;79;21286;-59
2021/05/26 09:38:59;;;;;;;3.45;0.65;;;;;;;31.31;19.40;101297.73;1797229;79;21180;-59
2021/05/26 09:41:36;;;;;;;1.37;0.70;;;;;;;30.82;19.50;101294.98;1772797;79;21315;-61
2021/05/26 09:44:10;;;;;;;4.62;0.70;;;;;;;30.37;19.83;101289.58;1774454;79;22030;-56
2021/05/26 09:46:46;;;;;;;1.17;0.53;;;;;;;30.21;20.39;101293.84;1802725;79;21307;-58
2021/05/26 09:49:23;;;;;;;1.55;0.70;;;;;;;30.33;20.17;101292.45;1769354;79;22204;-61
2021/05/26 09:51:58;;;;;;;2.50;0.70;;;;;;;30.51;19.87;101288.22;1797211;79;21299;-60
2021/05/26 09:54:32;;;;;;;3.47;0.82;;;;;;;30.60;20.21;101294.34;1791062;79;21346;-61
2021/05/26 09:57:09;;;;;;;4.00;0.90;;;;;;;30.46;19.47;101290.30;1772299;79;21302;-58
2021/05/26 09:59:42;;;;;;;1.25;0.78;;;;;;;30.17;19.85;101293.19;1800116;79;21999;-59
2021/05/26 10:02:17;;;;;;;3.67;0.62;;;;;;;29.90;20.06;101286.17;1789280;79;21302;-59
2021/05/26 10:04:52;;;;;;;2.45;0.70;;;;;;;29.71;21.44;101290.05;1759232;79;21282;-57
2021/05/26 10:07:43;;;;;;;1.45;0.78;;;;;;;29.62;20.63;101288.22;1788416;79;21252;-61
2021/05/26 10:10:18;;;;;;;4.65;0.68;;;;;;;29.63;21.16;101281.78;1787293;79;21506;-62
2021/05/26 10:12:54;;;;;;;0.90;0.50;;;;;;;29.72;20.64;101283.05;1767191;79;21314;-61
2021/05/26 10:15:29;;;;;;;1.42;0.68;;;;;;;29.75;20.05;101269.09;1784834;79;21307;-61
2021/05/26 10:18:02;;;;;;;3.65;0.70;;;;;;;29.74;20.98;101265.26;1801244;79;21311;-62
2021/05/26 10:20:40;;;;;;;;;;;;;;;29.81;21.14;101268.16;1795282;78;21355;-61
2021/05/26 10:23:20;;;;;;;1.85;1.02;;;;;;;29.87;20.63;101264.52;1782217;79;20649;-59
2021/05/26 10:25:54;;;;;;;4.00;1.12;;;;;;;29.77;20.94;101266.17;1801700;79;22179;-59
2021/05/26 10:28:35;;;;;;;1.50;0.80;;;;;;;29.54;21.50;101263.48;1766258;79;21291;-58
2021/05/26 10:31:05;;;;;;;3.22;0.85;;;;;;;29.29;21.40;101271.81;1769283;78;21496;-59
2021/05/26 10:33:46;;;;;;;1.85;0.80;;;;;;;29.18;22.26;101271.26;1785914;79;21220;-63
2021/05/26 10:36:21;;;;;;;2.77;0.65;;;;;;;29.13;21.85;101269.78;1789776;79;21672;-62
2021/05/26 10:39:00;;;;;;;7.50;1.22;;;;;;;29.00;21.63;101265.95;1783393;79;21276;-62
2021/05/26 10:41:54;;;;;;;2.72;0.70;;;;;;;28.80;21.35;101262.77;1796893;79;22073;-66
2021/05/26 10:45:06;;;;;;;2.12;0.60;;;;;;;28.58;21.66;101264.61;1785920;79;21977;-60
2021/05/26 10:47:46;;;;;;;1.77;0.75;;;;;;;28.34;21.79;101254.80;1768960;79;21306;-63
2021/05/26 10:50:25;;;;;;;3.47;0.93;;;;;;;28.22;22.08;101251.75;1792930;79;21378;-64
2021/05/26 10:53:10;;;;;;;1.35;0.70;;;;;;;28.20;22.17;101247.95;1774691;79;21204;-60
2021/05/26 10:55:51;;;;;;;1.47;0.50;;;;;;;28.20;23.09;101245.26;1805645;79;22632;-62
2021/05/26 10:58:36;;;;;;;1.30;0.78;;;;;;;28.21;22.84;101238.81;1764275;79;21231;-60
2021/05/26 11:01:11;;;;;;;0.80;0.70;;;;;;;28.27;22.67;101245.99;1778698;78;21393;-63
2021/05/26 11:03:45;;;;;;;2.27;0.60;;;;;;;28.35;23.22;101242.96;1798350;79;22102;-59
2021/05/26 11:06:30;;;;;;;4.33;0.70;;;;;;;28.38;22.68;101238.47;1793958;79;21369;-63
2021/05/26 11:09:07;;;;;;;1.60;1.12;;;;;;;28.33;22.30;101239.68;1789275;78;21447;-61
2021/05/26 11:11:42;;;;;;;2.70;0.72;;;;;;;28.15;22.79;101237.56;1793699;79;21581;-62
2021/05/26 11:14:20;;;;;;;1.45;0.62;;;;;;;27.99;23.25;101228.22;1767894;79;21636;-64
2021/05/26 11:17:05;;;;;;;8.35;1.32;;;;;;;27.85;23.57;101232.92;1771703;79;21173;-59
2021/05/26 11:19:39;;;;;;;2.50;0.90;;;;;;;27.80;24.09;101236.02;1801029;78;21310;-63
2021/05/26 11:22:16;;;;;;;1.67;0.60;;;;;;;27.71;23.53;101236.81;1781747;79;22079;-59
2021/05/26 11:24:52;;;;;;;1.50;0.75;;;;;;;27.64;23.84;101233.90;1783985;79;22060;-61
2021/05/26 11:27:27;;;;;;;2.65;0.70;;;;;;;27.67;23.90;101230.77;1771569;79;21330;-58
2021/05/26 11:30:03;;;;;;;4.37;0.80;;;;;;;27.76;23.66;101227.55;1798673;79;21331;-62
2021/05/26 11:32:36;;;;;;;4.50;0.80;;;;;;;27.83;23.41;101221.56;1795744;79;21327;-60
2021/05/26 11:35:10;;;;;;;1.12;0.50;;;;;;;27.82;23.10;101219.91;1783566;79;21299;-65
2021/05/26 11:37:43;;;;;;;1.85;0.80;;;;;;;27.83;23.87;101215.36;1789363;79;21603;-64
2021/05/26 11:40:28;;;;;;;9.83;0.75;;;;;;;27.80;23.90;101215.28;1776932;79;21306;-62
2021/05/26 11:43:02;;;;;;;1.32;0.60;;;;;;;27.76;24.18;101215.44;1788656;79;21357;-64
2021/05/26 11:45:37;;;;;;;2.40;0.70;;;;;;;27.67;23.86;101220.00;1782100;79;21534;-63
2021/05/26 11:48:09;;;;;;;;;;;;;;;27.53;23.94;101215.83;1790194;79;21338;-66
2021/05/26 11:50:45;;;;;;;3.65;0.60;;;;;;;27.44;23.89;101209.10;1785025;79;20184;-63
2021/05/26 11:53:18;;;;;;;1.75;0.78;;;;;;;27.37;24.09;101212.66;1795998;79;21152;-65
2021/05/26 11:55:58;;;;;;;1.10;0.50;;;;;;;27.35;24.27;101204.48;1801485;79;21588;-70
2021/05/26 11:58:39;;;;;;;1.80;1.05;;;;;;;27.31;24.17;101208.16;1793097;79;21588;-67
2021/05/26 12:01:14;;;;;;;7.80;1.45;;;;;;;27.24;24.56;101202.03;1768040;80;21230;-60
2021/05/26 12:03:49;;;;;;;0.75;0.60;;;;;;;27.12;25.06;101210.52;1782705;78;21346;-62